Time;durP1;ratioP1;P1;durP2;ratioP2;P2;SDS_P1;SDS_P2;PMS_P1;PMS_P2;Temp;Humidity;BMP_temperature;BMP_pressure;BME280_temperature;BME280_humidity;BME280_pressure;Samples;Min_cycle;Max_cycle;Signal;HPM_P1;HPM_P2
2022/03/20 00:01:51;;;;;;;6.57;2.20;;;;;;;-4.05;73.42;102159.56;10374305;28;20509;-77
2022/03/20 00:06:52;;;;;;;9.60;3.70;;;;;;;-4.48;72.81;102106.75;10373752;28;20188;-77
2022/03/20 00:11:52;;;;;;;6.50;3.17;;;;;;;-6.05;73.49;101861.69;10374010;28;20046;-77
2022/03/20 00:16:53;;;;;;;5.28;1.90;;;;;;;-4.41;73.20;102154.19;10374770;28;20046;-77
2022/03/20 00:21:55;;;;;;;5.63;2.38;;;;;;;-4.35;73.48;102164.44;10373236;28;20556;-77
2022/03/20 00:27:00;;;;;;;5.88;2.20;;;;;;;-4.96;73.07;102077.38;10372968;28;20056;-76
2022/03/20 00:32:01;;;;;;;6.57;2.17;;;;;;;-4.68;72.30;102142.56;10372809;28;20042;-77
2022/03/20 00:37:02;;;;;;;6.25;2.15;;;;;;;-4.89;72.56;102134.25;10372517;28;20199;-76
2022/03/20 00:42:04;;;;;;;8.43;1.92;;;;;;;-4.90;71.79;102145.50;10371934;28;20049;-76
2022/03/20 00:47:05;;;;;;;5.50;1.75;;;;;;;-5.07;72.57;102125.03;10372831;28;20128;-76
2022/03/20 00:52:06;;;;;;;21.33;5.40;;;;;;;-5.09;72.87;102119.00;10373448;28;20057;-76
2022/03/20 00:57:07;;;;;;;9.27;3.58;;;;;;;-5.54;72.77;102059.28;10372706;28;20132;-77
2022/03/20 01:02:08;;;;;;;9.90;2.47;;;;;;;-5.23;72.29;102105.44;10372782;28;20164;-76
2022/03/20 01:07:09;;;;;;;5.63;2.40;;;;;;;-5.06;72.01;102152.66;10372256;28;20605;-76
2022/03/20 01:12:10;;;;;;;3.20;1.67;;;;;;;-7.15;72.18;101818.47;10372962;28;20050;-76
2022/03/20 01:17:11;;;;;;;4.28;1.77;;;;;;;-5.89;72.12;102051.16;10372921;28;20038;-76
2022/03/20 01:22:12;;;;;;;5.60;2.42;;;;;;;-5.71;72.48;102123.41;10371554;28;20046;-76
2022/03/20 01:27:13;;;;;;;4.50;1.95;;;;;;;-5.63;72.71;102139.66;10370266;28;20038;-76
2022/03/20 01:32:14;;;;;;;5.72;2.72;;;;;;;-5.76;72.52;102138.13;10372986;28;20160;-76
2022/03/20 01:37:15;;;;;;;4.90;2.28;;;;;;;-6.17;72.52;102082.59;10372237;28;20038;-76
2022/03/20 01:42:16;;;;;;;6.55;2.67;;;;;;;-6.05;72.09;102120.41;10371970;28;20072;-76
2022/03/20 01:47:17;;;;;;;11.43;3.33;;;;;;;-6.13;72.35;102141.22;10378582;28;20042;-76
2022/03/20 01:52:24;;;;;;;47.53;18.77;;;;;;;-7.32;72.56;101972.72;10403190;28;20133;-76
2022/03/20 01:57:26;;;;;;;16.05;5.10;;;;;;;-7.15;72.63;102052.59;10379369;28;20066;-74
2022/03/20 02:02:27;;;;;;;6.70;2.38;;;;;;;-6.59;72.96;102156.31;10419944;28;20087;-76
2022/03/20 02:07:28;;;;;;;4.45;2.05;;;;;;;-6.57;73.29;102132.19;10419419;28;20040;-76
2022/03/20 02:12:30;;;;;;;10.55;2.13;;;;;;;-6.40;73.72;102146.66;10419592;28;20049;-76
2022/03/20 02:17:31;;;;;;;5.20;1.98;;;;;;;-6.36;72.17;102161.28;10418841;28;20038;-76
2022/03/20 02:22:32;;;;;;;6.70;2.65;;;;;;;-6.29;72.11;102148.25;10418613;28;20041;-75
2022/03/20 02:27:34;;;;;;;11.02;3.88;;;;;;;-6.71;71.20;102084.94;10418706;28;20049;-76
2022/03/20 02:32:35;;;;;;;30.02;11.25;;;;;;;-6.87;71.41;102079.06;10419958;28;20496;-76
2022/03/20 02:37:39;;;;;;;31.38;13.15;;;;;;;-6.83;72.01;102111.75;10419141;28;20386;-75
2022/03/20 02:42:42;;;;;;;6.97;3.53;;;;;;;-6.59;71.73;102140.81;10418259;28;20099;-76
2022/03/20 02:47:44;;;;;;;15.68;4.93;;;;;;;-6.76;71.45;102099.59;10418467;28;20037;-75
2022/03/20 02:52:58;;;;;;;8.13;2.47;;;;;;;-6.45;71.74;102150.16;10417952;28;20041;-75
2022/03/20 02:58:01;;;;;;;7.67;2.17;;;;;;;-6.45;70.82;102155.31;10399188;28;20136;-76
2022/03/20 03:03:04;;;;;;;5.53;1.98;;;;;;;-6.59;71.30;102115.81;10417015;28;20057;-76
2022/03/20 03:13:30;;;;;;;5.50;2.40;;;;;;;-7.07;70.81;102055.13;10417194;28;20477;-75
2022/03/20 03:18:31;;;;;;;6.15;2.65;;;;;;;-6.88;71.03;102129.00;10417616;28;20047;-76
2022/03/20 03:23:32;;;;;;;8.07;2.30;;;;;;;-6.83;71.69;102128.97;10416689;28;20044;-76
2022/03/20 03:28:36;;;;;;;4.93;2.50;;;;;;;-6.93;71.86;102030.03;10416620;28;20504;-76
2022/03/20 03:35:41;;;;;;;4.65;2.42;;;;;;;-5.73;70.92;102070.78;10415764;28;20369;-74
2022/03/20 03:39:00;;;;;;;5.85;2.50;;;;;;;-4.52;70.36;102119.78;10416515;28;20098;-75
2022/03/20 03:44:01;;;;;;;5.95;1.75;;;;;;;-4.81;69.05;102001.91;10415990;28;20098;-75
2022/03/20 03:49:01;;;;;;;7.13;2.30;;;;;;;-4.30;69.55;102138.44;10415196;28;20061;-76
2022/03/20 03:54:02;;;;;;;10.05;2.50;;;;;;;-4.60;70.03;102136.34;10396716;28;20043;-75
2022/03/20 03:59:03;;;;;;;8.63;2.33;;;;;;;-4.89;69.56;102151.53;10374288;28;20049;-75
2022/03/20 04:04:04;;;;;;;5.28;2.40;;;;;;;-5.03;69.97;102132.75;10374223;28;20148;-76
2022/03/20 04:09:05;;;;;;;25.27;12.60;;;;;;;-4.45;69.69;102143.00;10374013;28;20104;-76
2022/03/20 04:14:06;;;;;;;7.75;4.25;;;;;;;-3.65;68.66;102148.34;10405388;28;20044;-76
2022/03/20 04:19:08;;;;;;;6.18;3.47;;;;;;;-3.67;67.12;102021.97;10414369;28;20056;-75
2022/03/20 04:24:09;;;;;;;4.90;2.30;;;;;;;-2.88;66.36;102027.81;10421256;28;20045;-76
2022/03/20 04:29:10;;;;;;;9.65;4.00;;;;;;;-1.41;64.97;102130.38;10422816;28;20041;-77
2022/03/20 04:34:12;;;;;;;5.93;2.80;;;;;;;-0.86;66.07;102141.66;10422723;28;20501;-77
2022/03/20 04:39:13;;;;;;;7.93;2.95;;;;;;;-0.51;65.30;102143.09;10421050;28;20496;-77
2022/03/20 04:44:14;;;;;;;7.60;2.60;;;;;;;-0.79;65.05;102104.00;10423074;28;20033;-76
2022/03/20 04:59:54;;;;;;;11.63;3.20;;;;;;;-1.61;64.59;102129.22;10423547;28;20136;-77
2022/03/20 05:04:55;;;;;;;4.60;2.58;;;;;;;-1.35;63.04;102124.09;10413655;28;20164;-77
2022/03/20 05:15:16;;;;;;;8.80;2.97;;;;;;;-1.61;62.49;102013.72;10375441;28;20728;-78
2022/03/20 05:20:16;;;;;;;7.30;2.83;;;;;;;-0.75;62.46;102162.16;10408280;28;20527;-75
2022/03/20 05:25:18;;;;;;;7.18;2.97;;;;;;;-0.64;62.33;102169.66;10391988;28;20060;-75
2022/03/20 05:30:19;;;;;;;5.40;2.70;;;;;;;-0.78;62.33;102162.28;10419436;28;20041;-76
2022/03/20 05:35:20;;;;;;;5.25;3.15;;;;;;;-0.62;61.90;102166.09;10418424;28;20041;-76
2022/03/20 05:40:21;;;;;;;8.40;2.90;;;;;;;-0.46;61.90;102132.47;10396497;28;20140;-76
2022/03/20 05:45:22;;;;;;;7.35;3.10;;;;;;;-0.05;61.26;102159.75;10380208;28;20600;-75
2022/03/20 05:50:23;;;;;;;26.58;7.10;;;;;;;0.01;59.94;102123.88;10380333;28;20099;-75
2022/03/20 05:58:01;;;;;;;11.30;3.65;;;;;;;0.34;60.30;102125.22;10394684;28;20456;-76
2022/03/20 06:00:45;;;;;;;9.27;3.70;;;;;;;0.37;57.61;102130.31;10418107;28;20393;-75
2022/03/20 06:05:47;;;;;;;8.68;3.05;;;;;;;0.71;56.96;102123.78;10415857;28;20073;-76
2022/03/20 06:10:48;;;;;;;8.30;2.00;;;;;;;0.06;55.12;102056.59;10422012;28;20064;-76
2022/03/20 06:15:49;;;;;;;5.55;2.92;;;;;;;0.70;55.00;102106.38;10426438;28;20048;-75
2022/03/20 06:20:52;;;;;;;7.28;2.72;;;;;;;1.11;53.93;102127.41;10425616;28;20508;-76
2022/03/20 06:25:53;;;;;;;4.85;2.55;;;;;;;-0.04;52.62;101931.53;10440814;28;20049;-74
2022/03/20 06:30:54;;;;;;;3.95;1.65;;;;;;;1.50;50.82;102118.78;10395717;28;20053;-76
2022/03/20 06:35:55;;;;;;;3.85;1.83;;;;;;;1.91;51.27;102106.47;10393250;28;20041;-75
2022/03/20 06:40:56;;;;;;;4.20;1.70;;;;;;;2.07;49.01;102119.75;10393070;28;20080;-75
2022/03/20 06:45:57;;;;;;;6.20;2.00;;;;;;;2.35;46.94;102123.72;10392926;28;20037;-76
2022/03/20 06:50:59;;;;;;;4.07;2.03;;;;;;;1.65;45.38;102002.00;10394191;28;20049;-77
2022/03/20 06:56:00;;;;;;;5.22;1.67;;;;;;;1.98;45.53;102070.38;10391952;28;20496;-75
2022/03/20 07:01:01;;;;;;;6.28;2.03;;;;;;;2.29;44.65;102073.25;10393281;28;20042;-75
2022/03/20 07:06:02;;;;;;;5.80;2.30;;;;;;;2.70;44.58;102133.41;10390663;28;20433;-75
2022/03/20 07:11:03;;;;;;;6.00;1.83;;;;;;;3.17;43.71;102135.50;10392951;28;20072;-75
2022/03/20 07:16:04;;;;;;;4.18;1.92;;;;;;;2.92;43.20;102101.72;10390989;28;20049;-75
2022/03/20 07:21:06;;;;;;;4.93;2.28;;;;;;;3.10;41.69;102114.88;10389147;28;20501;-75
2022/03/20 07:31:27;;;;;;;7.70;4.47;;;;;;;3.47;41.15;102116.50;10391888;28;20386;-73
2022/03/20 07:36:28;;;;;;;7.38;3.35;;;;;;;3.84;39.17;102117.22;10389753;28;20034;-73
2022/03/20 07:41:29;;;;;;;8.20;4.57;;;;;;;2.34;38.18;101883.38;10392438;28;20119;-74
2022/03/20 07:46:30;;;;;;;8.82;6.03;;;;;;;3.57;38.18;102107.19;10389712;28;20552;-78
2022/03/20 07:51:31;;;;;;;10.20;5.18;;;;;;;3.00;36.70;101977.13;10390754;28;20133;-74
2022/03/20 07:56:35;;;;;;;12.57;5.40;;;;;;;4.32;36.15;102128.66;10388967;28;20038;-74
2022/03/20 08:01:37;;;;;;;7.67;4.90;;;;;;;3.60;36.47;101980.06;10390001;28;20626;-74
2022/03/20 08:06:38;;;;;;;5.40;2.97;;;;;;;3.76;35.71;101959.88;10390718;28;20421;-74
2022/03/20 08:11:38;;;;;;;6.38;4.00;;;;;;;3.31;34.49;101979.81;10390021;28;20041;-74
2022/03/20 08:16:39;;;;;;;10.90;5.72;;;;;;;4.12;34.43;102062.19;10392374;28;20401;-74
2022/03/20 08:21:40;;;;;;;12.65;4.80;;;;;;;4.31;32.49;102103.28;10395506;28;20037;-73
2022/03/20 08:26:41;;;;;;;10.68;3.63;;;;;;;4.09;32.74;102096.53;10414555;28;20049;-74
2022/03/20 08:31:47;;;;;;;9.13;3.33;;;;;;;4.40;31.35;102092.25;10414410;28;20448;-74
2022/03/20 08:36:48;;;;;;;7.32;3.95;;;;;;;4.18;31.73;102104.88;10414363;28;20132;-75
2022/03/20 08:41:49;;;;;;;8.45;2.38;;;;;;;4.63;32.05;102105.88;10413944;28;20132;-74
2022/03/20 08:46:49;;;;;;;7.22;3.85;;;;;;;4.48;31.36;102097.91;10413882;28;20045;-74
2022/03/20 08:51:50;;;;;;;5.70;2.75;;;;;;;3.99;31.83;101976.19;10412961;28;20417;-74
2022/03/20 08:56:51;;;;;;;10.45;1.92;;;;;;;4.99;29.39;102082.72;10413021;28;20124;-74
2022/03/20 09:01:52;;;;;;;5.10;2.00;;;;;;;4.85;29.77;102080.06;10414309;28;20493;-75
2022/03/20 09:06:55;;;;;;;17.10;3.88;;;;;;;5.15;30.21;102090.59;10413325;28;20057;-74
2022/03/20 09:11:55;;;;;;;12.90;3.75;;;;;;;5.70;30.34;102086.44;10413176;28;20068;-75
2022/03/20 09:22:16;;;;;;;13.95;3.58;;;;;;;5.76;30.23;102069.38;10413220;28;20041;-74
2022/03/20 09:27:17;;;;;;;16.70;3.40;;;;;;;5.73;30.80;102049.31;10413044;28;20412;-76
2022/03/20 09:32:18;;;;;;;9.65;3.83;;;;;;;6.11;30.19;102068.06;10402973;28;20043;-75
2022/03/20 09:37:19;;;;;;;9.52;3.00;;;;;;;5.69;29.54;102029.38;10377450;28;20457;-75
2022/03/20 09:42:20;;;;;;;5.40;2.33;;;;;;;6.10;30.42;102036.50;10371167;28;20120;-75
2022/03/20 09:47:25;;;;;;;11.77;2.95;;;;;;;5.28;30.22;101922.06;10371491;28;20052;-74
2022/03/20 09:52:26;;;;;;;11.60;2.70;;;;;;;5.36;29.02;101946.16;10370906;28;20104;-74
2022/03/20 09:57:29;;;;;;;7.25;2.53;;;;;;;5.84;27.69;102023.13;10391447;28;20045;-75
2022/03/20 10:02:30;;;;;;;6.38;2.28;;;;;;;6.25;28.66;102013.56;10419359;28;20144;-73
2022/03/20 10:07:36;;;;;;;5.38;2.33;;;;;;;6.44;29.19;102023.78;10422116;28;20478;-74
2022/03/20 10:12:44;;;;;;;5.45;2.45;;;;;;;6.27;28.25;102004.59;10420115;28;20076;-73
2022/03/20 10:18:04;;;;;;;5.80;1.98;;;;;;;5.94;27.92;101902.94;10428095;28;20500;-74
2022/03/20 10:23:29;;;;;;;4.68;2.00;;;;;;;6.51;27.83;102004.78;10429269;28;20052;-75
2022/03/20 10:28:38;;;;;;;9.63;3.83;;;;;;;6.52;28.46;102003.00;10423379;28;20042;-77
2022/03/20 10:33:40;;;;;;;5.53;2.08;;;;;;;6.87;26.52;102003.28;10429188;28;20041;-75
2022/03/20 10:38:43;;;;;;;151.13;80.75;;;;;;;5.87;26.75;101871.78;10428907;28;20115;-75
2022/03/20 10:43:45;;;;;;;28.20;14.73;;;;;;;6.24;27.26;101962.56;10412698;28;20528;-75
2022/03/20 10:48:49;;;;;;;16.80;5.78;;;;;;;6.56;27.74;101997.41;10425524;28;20069;-75
2022/03/20 10:54:01;;;;;;;38.70;13.90;;;;;;;6.66;26.90;101975.69;10425724;28;20076;-77
2022/03/20 10:59:17;;;;;;;29.92;10.50;;;;;;;6.70;28.35;101990.38;10426123;28;20045;-75
2022/03/20 11:04:19;;;;;;;12.02;3.58;;;;;;;6.25;27.08;101884.25;10420799;28;20057;-76
2022/03/20 11:09:21;;;;;;;18.85;6.47;;;;;;;6.93;27.44;101930.69;10383380;28;20069;-74
2022/03/20 11:14:24;;;;;;;10.48;2.45;;;;;;;7.02;27.71;101980.28;10391837;28;20047;-76
2022/03/20 11:19:30;;;;;;;14.95;6.78;;;;;;;6.71;26.82;101974.44;10383480;28;20049;-74
2022/03/20 11:24:31;;;;;;;7.47;3.63;;;;;;;6.79;26.64;101977.41;10398035;28;20061;-75
2022/03/20 11:29:54;;;;;;;7.35;2.78;;;;;;;6.76;27.57;101982.03;10391970;28;20048;-74
2022/03/20 11:34:56;;;;;;;8.63;3.35;;;;;;;4.99;26.38;101718.44;10392647;28;20131;-74
2022/03/20 11:40:10;;;;;;;7.65;3.10;;;;;;;5.74;26.47;101768.88;10389811;28;20040;-76
2022/03/20 11:45:17;;;;;;;4.87;1.90;;;;;;;6.59;26.33;101943.56;10392579;28;20034;-74
2022/03/20 11:50:21;;;;;;;186.82;97.72;;;;;;;5.51;26.37;101836.28;10400018;28;20451;-76
2022/03/20 11:55:32;;;;;;;16.95;6.85;;;;;;;6.76;27.38;101985.53;10389762;28;20049;-77
2022/03/20 12:00:36;;;;;;;6.95;3.20;;;;;;;6.34;26.52;101887.13;10388820;28;20037;-75
2022/03/20 12:05:50;;;;;;;5.47;2.70;;;;;;;6.90;27.40;101981.09;10392665;28;20421;-76
2022/03/20 12:11:28;;;;;;;9.80;4.93;;;;;;;6.81;27.61;101972.84;10390219;28;20387;-76
2022/03/20 12:16:49;;;;;;;7.65;2.70;;;;;;;6.96;27.80;101965.69;10389694;28;20041;-75
2022/03/20 12:22:03;;;;;;;4.07;1.98;;;;;;;6.60;27.56;101917.03;10389432;28;20108;-75
2022/03/20 12:27:22;;;;;;;47.60;36.78;;;;;;;6.22;28.62;101850.97;10389202;28;20034;-75
2022/03/20 12:32:28;;;;;;;6.72;4.35;;;;;;;6.89;27.47;101966.22;10388155;28;20080;-75
2022/03/20 12:37:37;;;;;;;5.60;2.72;;;;;;;6.65;27.55;101964.28;10387904;28;20099;-76
2022/03/20 12:42:40;;;;;;;7.10;2.80;;;;;;;6.61;27.92;101968.94;10403220;28;20381;-74
2022/03/20 12:47:56;;;;;;;5.20;1.67;;;;;;;6.63;28.45;101966.16;10389328;28;20036;-74
2022/03/20 12:53:08;;;;;;;5.90;2.42;;;;;;;6.14;28.04;101919.28;10393652;28;20041;-75
2022/03/20 12:58:16;;;;;;;4.75;2.15;;;;;;;6.37;28.55;101963.47;10388377;28;20485;-75
2022/03/20 13:03:18;;;;;;;4.90;1.85;;;;;;;6.10;27.75;101920.41;10394273;28;20507;-76
2022/03/20 13:08:30;;;;;;;10.52;3.70;;;;;;;5.79;28.22;101955.81;10386372;28;20481;-75
2022/03/20 13:13:36;;;;;;;6.82;2.90;;;;;;;5.58;28.09;101969.38;10387073;28;20049;-75
2022/03/20 13:18:37;;;;;;;10.50;2.50;;;;;;;5.32;28.52;101925.34;10379972;28;20103;-75
2022/03/20 13:23:38;;;;;;;8.20;2.05;;;;;;;5.22;29.44;101893.47;10382506;28;20099;-75
2022/03/20 13:28:40;;;;;;;2.63;1.40;;;;;;;5.23;28.31;101908.31;10371595;28;20175;-74
2022/03/20 13:33:51;;;;;;;16.38;1.55;;;;;;;5.37;29.18;101950.47;10372020;28;20038;-74
2022/03/20 13:38:55;;;;;;;3.70;1.42;;;;;;;4.28;29.21;101770.19;10375533;28;20053;-74
2022/03/20 13:44:03;;;;;;;18.63;3.03;;;;;;;5.02;29.27;101908.69;10402674;28;20052;-75
2022/03/20 13:49:06;;;;;;;5.22;2.13;;;;;;;4.86;29.02;101892.16;10390182;28;20468;-76
2022/03/20 13:54:22;;;;;;;9.55;1.75;;;;;;;4.79;29.92;101891.69;10379853;28;20133;-75
2022/03/20 13:59:24;;;;;;;10.35;2.20;;;;;;;3.58;29.91;101714.72;10378764;28;20419;-76
2022/03/20 14:04:25;;;;;;;6.05;2.00;;;;;;;4.14;30.17;101808.78;10390757;28;20060;-75
2022/03/20 14:09:33;;;;;;;4.80;1.48;;;;;;;4.70;30.36;101925.63;10399221;28;20064;-75
2022/03/20 14:14:42;;;;;;;2.58;1.20;;;;;;;4.61;30.39;101919.13;10400517;28;20041;-75
2022/03/20 14:19:45;;;;;;;4.35;1.25;;;;;;;4.47;29.97;101925.19;10398422;28;20041;-74
2022/03/20 14:24:54;;;;;;;15.02;2.17;;;;;;;4.31;30.67;101927.03;10396115;28;20406;-75
2022/03/20 14:40:42;;;;;;;9.23;1.55;;;;;;;3.70;31.87;101915.53;10397009;28;20118;-75
2022/03/20 14:45:43;;;;;;;8.90;2.13;;;;;;;3.47;32.44;101898.44;10398558;28;20060;-76
2022/03/20 14:50:44;;;;;;;9.98;3.03;;;;;;;2.73;32.95;101809.66;10391893;28;20045;-74
2022/03/20 14:55:45;;;;;;;25.50;16.10;;;;;;;3.16;32.75;101907.94;10403766;28;20049;-73
2022/03/20 15:00:47;;;;;;;8.52;6.13;;;;;;;2.94;32.96;101894.28;10403365;28;20041;-75
2022/03/20 15:05:48;;;;;;;11.10;5.93;;;;;;;2.91;33.44;101924.16;10393377;28;20096;-74
2022/03/20 15:16:08;;;;;;;29.05;8.98;;;;;;;2.72;34.26;101957.50;10394533;28;20040;-75
2022/03/20 15:21:09;;;;;;;65.47;19.80;;;;;;;2.36;35.01;101947.91;10424994;28;20038;-77
2022/03/20 15:26:10;;;;;;;37.47;14.20;;;;;;;2.34;35.28;101967.31;10424504;28;20049;-74
2022/03/20 15:31:12;;;;;;;41.22;17.23;;;;;;;1.46;35.57;101847.47;10423718;28;20041;-75
2022/03/20 15:36:22;;;;;;;21.42;10.85;;;;;;;1.76;35.84;101927.22;10423573;28;20077;-75
2022/03/20 15:41:25;;;;;;;24.00;9.02;;;;;;;0.91;36.35;101817.69;10424090;28;20056;-75
2022/03/20 15:46:26;;;;;;;14.23;6.60;;;;;;;1.55;36.59;101965.72;10413399;28;20049;-76
2022/03/20 15:51:27;;;;;;;25.10;9.98;;;;;;;0.28;36.47;101803.94;10404868;28;20041;-75
2022/03/20 15:56:28;;;;;;;16.38;4.55;;;;;;;1.01;36.69;101958.59;10407369;28;20061;-75
2022/03/20 16:01:28;;;;;;;8.65;3.50;;;;;;;-0.07;36.99;101824.56;10399180;28;20140;-74
2022/03/20 16:06:30;;;;;;;23.77;7.18;;;;;;;-0.27;37.60;101829.75;10394570;28;20053;-75
2022/03/20 16:11:32;;;;;;;11.50;4.38;;;;;;;-0.51;38.01;101819.38;10397743;28;20125;-75
2022/03/20 16:16:34;;;;;;;43.17;13.50;;;;;;;0.03;38.36;101928.69;10396392;28;20049;-74
2022/03/20 16:21:35;;;;;;;43.13;10.50;;;;;;;0.15;38.04;101988.28;10403520;28;20045;-75
2022/03/20 16:32:01;;;;;;;76.65;25.25;;;;;;;-0.16;39.88;101997.31;10413865;28;20053;-75
2022/03/20 16:37:03;;;;;;;53.60;17.70;;;;;;;-0.28;39.80;102000.41;10414485;28;20161;-75
2022/03/20 16:42:05;;;;;;;53.42;20.63;;;;;;;-0.37;40.83;102017.25;10414579;28;20034;-75
2022/03/20 16:47:06;;;;;;;24.08;10.85;;;;;;;-1.44;40.46;101854.16;10413281;28;20413;-75
2022/03/20 16:52:06;;;;;;;12.32;5.90;;;;;;;-0.71;41.08;102012.44;10413146;28;20052;-75
2022/03/20 16:57:07;;;;;;;23.02;7.90;;;;;;;-0.67;41.07;102019.22;10413528;28;20071;-74
2022/03/20 17:02:09;;;;;;;18.92;6.22;;;;;;;-1.22;41.33;101942.91;10410382;28;20045;-75
2022/03/20 17:07:11;;;;;;;19.30;5.95;;;;;;;-0.74;41.50;102028.19;10380751;28;20045;-75
2022/03/20 17:12:12;;;;;;;32.03;14.40;;;;;;;-0.98;41.75;101975.13;10386642;28;20508;-75
2022/03/20 17:17:15;;;;;;;6.70;2.70;;;;;;;-1.72;41.36;101859.50;10398839;28;20052;-76
2022/03/20 17:22:16;;;;;;;9.00;2.83;;;;;;;-0.95;42.25;101999.34;10386447;28;20053;-76
2022/03/20 17:27:17;;;;;;;6.90;2.40;;;;;;;-0.98;41.86;101999.44;10387607;28;20502;-75
2022/03/20 17:32:18;;;;;;;6.25;2.65;;;;;;;-1.15;42.43;101971.31;10384866;28;20460;-76
2022/03/20 17:37:19;;;;;;;7.53;2.65;;;;;;;-0.90;42.26;102016.56;10390491;28;20053;-76
2022/03/20 17:42:20;;;;;;;10.02;2.30;;;;;;;-1.65;42.08;101892.22;10390563;28;20033;-76
2022/03/20 17:47:22;;;;;;;6.47;2.33;;;;;;;-1.19;42.53;101961.06;10393312;28;20087;-76
2022/03/20 17:52:25;;;;;;;14.13;3.80;;;;;;;-0.86;42.33;102020.81;10394801;28;20034;-77
2022/03/20 17:57:29;;;;;;;14.07;4.35;;;;;;;-1.46;43.10;101989.78;10395295;28;20049;-76
2022/03/20 18:12:51;;;;;;;5.15;1.73;;;;;;;-2.40;44.53;101903.31;10387078;28;20516;-78
2022/03/20 18:17:53;;;;;;;6.35;2.17;;;;;;;-1.67;44.53;102045.19;10385259;28;20073;-75
2022/03/20 18:22:56;;;;;;;9.23;2.72;;;;;;;-1.80;44.60;102038.63;10388766;28;20042;-77
2022/03/20 18:27:58;;;;;;;9.80;2.60;;;;;;;-2.00;45.19;102000.19;10388551;28;20046;-76
2022/03/20 18:33:00;;;;;;;6.40;2.05;;;;;;;-3.29;45.02;101775.06;10410178;28;20048;-76
2022/03/20 18:38:04;;;;;;;13.85;3.65;;;;;;;-1.66;45.17;102031.25;10412488;28;20052;-76
2022/03/20 18:43:06;;;;;;;33.70;10.80;;;;;;;-2.02;46.01;101973.34;10419035;28;20079;-77
2022/03/20 18:48:09;;;;;;;27.30;10.50;;;;;;;-2.70;46.39;101868.66;10417806;28;20037;-77
2022/03/20 18:53:09;;;;;;;47.03;14.65;;;;;;;-2.07;45.92;102010.75;10417208;28;20048;-77
2022/03/20 18:58:10;;;;;;;34.33;11.07;;;;;;;-2.69;46.20;101898.13;10417277;28;20041;-78
2022/03/20 19:03:13;;;;;;;44.53;16.73;;;;;;;-2.20;46.41;102032.03;10418059;28;20084;-77
2022/03/20 19:08:14;;;;;;;20.55;7.75;;;;;;;-3.12;46.59;101892.38;10417523;28;20044;-76
2022/03/20 19:13:15;;;;;;;33.85;9.85;;;;;;;-2.35;46.75;102049.78;10417189;28;20033;-76
2022/03/20 19:18:18;;;;;;;11.85;4.35;;;;;;;-3.18;46.48;101922.91;10417784;28;20053;-77
2022/03/20 19:23:18;;;;;;;13.15;4.85;;;;;;;-3.97;47.12;101815.84;10417171;28;20049;-77
2022/03/20 19:28:20;;;;;;;8.35;3.95;;;;;;;-2.88;47.57;102036.47;10415789;28;20451;-77
2022/03/20 19:33:21;;;;;;;15.70;3.42;;;;;;;-2.96;47.64;102051.44;10415376;28;20397;-77
2022/03/20 19:43:41;;;;;;;12.93;3.78;;;;;;;-3.21;47.74;102017.41;10415643;28;20079;-77
2022/03/20 19:48:42;;;;;;;14.38;4.97;;;;;;;-3.36;48.66;102026.44;10415585;28;20068;-77
2022/03/20 19:53:43;;;;;;;15.23;5.05;;;;;;;-3.39;48.92;102023.91;10415634;28;20049;-77
2022/03/20 19:58:46;;;;;;;15.30;5.22;;;;;;;-3.54;49.55;102012.16;10415149;28;20382;-77
2022/03/20 20:03:48;;;;;;;19.73;5.95;;;;;;;-4.24;49.70;101908.22;10415465;28;20063;-77
2022/03/20 20:08:48;;;;;;;26.92;7.70;;;;;;;-3.85;50.54;102014.63;10415387;28;20048;-77
2022/03/20 20:19:08;;;;;;;25.85;7.95;;;;;;;-3.79;50.68;101993.69;10415226;28;20132;-77
2022/03/20 20:24:10;;;;;;;26.88;7.70;;;;;;;-4.14;51.05;101991.91;10415075;28;20473;-76
2022/03/20 20:29:11;;;;;;;28.33;8.30;;;;;;;-4.90;51.60;101852.59;10410562;28;20412;-78
2022/03/20 20:34:12;;;;;;;23.35;7.57;;;;;;;-4.35;51.87;101962.06;10399927;28;20045;-77
2022/03/20 20:39:13;;;;;;;14.63;5.97;;;;;;;-4.18;52.61;102008.44;10412869;28;20052;-77
2022/03/20 20:44:16;;;;;;;15.95;6.20;;;;;;;-4.90;52.36;101893.22;10414497;28;20390;-77
2022/03/20 20:49:17;;;;;;;18.65;6.85;;;;;;;-5.44;53.00;101816.56;10414168;28;20065;-77
2022/03/20 20:54:18;;;;;;;22.73;7.82;;;;;;;-4.81;53.09;101934.50;10412568;28;20045;-77
2022/03/20 20:59:20;;;;;;;21.58;6.25;;;;;;;-4.49;53.81;101996.06;10413699;28;20034;-77
2022/03/20 21:04:21;;;;;;;11.30;4.72;;;;;;;-5.43;54.13;101845.91;10413747;28;20140;-77
2022/03/20 21:14:41;;;;;;;15.38;5.07;;;;;;;-4.70;54.45;101981.81;10412978;28;20146;-76
2022/03/20 21:19:42;;;;;;;13.80;4.72;;;;;;;-4.95;55.27;101954.66;10413686;28;20080;-77
2022/03/20 21:24:43;;;;;;;13.05;4.03;;;;;;;-6.00;55.54;101772.75;10412933;28;20033;-76
2022/03/20 21:29:44;;;;;;;40.45;17.55;;;;;;;-4.85;55.13;101987.28;10413004;28;20041;-76
2022/03/20 21:34:45;;;;;;;23.50;10.57;;;;;;;-5.86;55.77;101842.38;10413507;28;20041;-77
2022/03/20 21:39:45;;;;;;;11.95;5.00;;;;;;;-5.10;56.07;101989.50;10412756;28;20041;-76
2022/03/20 21:44:46;;;;;;;19.58;8.48;;;;;;;-6.18;56.41;101816.22;10413243;28;20129;-76
2022/03/20 21:49:47;;;;;;;14.10;5.30;;;;;;;-5.48;57.45;101964.25;10412528;28;20037;-76
2022/03/20 21:54:48;;;;;;;16.35;5.32;;;;;;;-5.45;57.15;101957.28;10411835;28;20041;-75
2022/03/20 21:59:49;;;;;;;12.88;4.65;;;;;;;-6.28;57.54;101818.94;10412172;28;20041;-76
2022/03/20 22:04:50;;;;;;;14.05;5.18;;;;;;;-5.37;58.17;101970.09;10417448;28;20156;-76
2022/03/20 22:09:51;;;;;;;14.23;5.60;;;;;;;-5.50;56.49;101972.06;10420165;28;20661;-76
2022/03/20 22:14:52;;;;;;;12.68;5.18;;;;;;;-7.41;57.37;101681.97;10420266;28;20045;-76
2022/03/20 22:19:52;;;;;;;9.35;4.28;;;;;;;-6.08;57.55;101914.31;10418517;28;20034;-76
2022/03/20 22:24:53;;;;;;;13.90;4.45;;;;;;;-5.89;57.90;101952.81;10418877;28;20038;-77
2022/03/20 22:29:58;;;;;;;9.98;4.15;;;;;;;-6.07;57.01;101949.69;10419054;28;20072;-76
2022/03/20 22:40:20;;;;;;;10.98;2.85;;;;;;;-6.10;58.05;101962.66;10418629;28;20315;-76
2022/03/20 22:45:23;;;;;;;6.87;3.30;;;;;;;-5.99;58.47;101965.06;10418888;28;20038;-77
2022/03/20 22:50:24;;;;;;;12.55;4.32;;;;;;;-6.20;58.97;101930.03;10416853;28;20419;-76
2022/03/20 22:55:28;;;;;;;11.95;3.20;;;;;;;-7.14;58.19;101802.09;10418161;28;20132;-76
2022/03/20 23:00:29;;;;;;;13.57;4.95;;;;;;;-7.15;59.14;101809.84;10415468;28;20123;-76
2022/03/20 23:05:30;;;;;;;20.10;5.40;;;;;;;-6.32;58.50;101953.47;10398897;28;20528;-76
2022/03/20 23:10:31;;;;;;;18.88;5.18;;;;;;;-6.49;58.60;101935.59;10395195;28;20046;-76
2022/03/20 23:15:32;;;;;;;20.27;5.35;;;;;;;-6.67;59.37;101927.22;10376333;28;20053;-76
2022/03/20 23:20:34;;;;;;;14.18;5.32;;;;;;;-6.48;60.38;101943.34;10376312;28;20196;-76
2022/03/20 23:25:35;;;;;;;11.27;4.03;;;;;;;-7.40;59.21;101793.81;10376038;28;20046;-77
2022/03/20 23:30:35;;;;;;;12.98;4.65;;;;;;;-6.41;60.62;101958.78;10376299;28;20405;-77
2022/03/20 23:35:40;;;;;;;10.15;4.43;;;;;;;-6.37;61.35;101969.06;10376295;28;20053;-76
2022/03/20 23:46:02;;;;;;;16.90;6.72;;;;;;;-6.44;60.36;101944.16;10375262;28;20038;-76
2022/03/20 23:51:04;;;;;;;20.55;7.18;;;;;;;-6.71;59.91;101898.84;10375743;28;20045;-76
2022/03/20 23:56:05;;;;;;;15.73;6.35;;;;;;;-6.53;60.09;101915.84;10373346;28;20041;-76
